sensor_id;sensor_type;location;lat;lon;timestamp;pressure;altitude;pressure_sealevel;temperature;humidity
41515;BME280;27247;48.020;16.720;2022-08-14T00:03:36;99372.44;;;19.98;86.99
41515;BME280;27247;48.020;16.720;2022-08-14T00:07:47;99362.25;;;19.89;88.21
41515;BME280;27247;48.020;16.720;2022-08-14T00:11:58;99364.72;;;19.73;89.09
41515;BME280;27247;48.020;16.720;2022-08-14T00:16:08;99355.66;;;19.68;89.76
41515;BME280;27247;48.020;16.720;2022-08-14T00:20:30;99361.75;;;19.58;90.48
41515;BME280;27247;48.020;16.720;2022-08-14T00:24:40;99352.59;;;19.48;91.37
41515;BME280;27247;48.020;16.720;2022-08-14T00:28:52;99348.41;;;19.40;92.25
41515;BME280;27247;48.020;16.720;2022-08-14T00:33:02;99348.88;;;19.37;92.89
41515;BME280;27247;48.020;16.720;2022-08-14T00:37:14;99349.72;;;19.37;92.68
41515;BME280;27247;48.020;16.720;2022-08-14T00:41:30;99344.53;;;19.36;92.92
41515;BME280;27247;48.020;16.720;2022-08-14T00:45:41;99352.09;;;19.34;92.59
41515;BME280;27247;48.020;16.720;2022-08-14T00:49:53;99357.19;;;19.30;92.46
41515;BME280;27247;48.020;16.720;2022-08-14T00:54:06;99354.94;;;19.27;92.71
41515;BME280;27247;48.020;16.720;2022-08-14T00:58:16;99357.56;;;19.22;92.87
41515;BME280;27247;48.020;16.720;2022-08-14T01:02:43;99348.63;;;19.22;92.19
41515;BME280;27247;48.020;16.720;2022-08-14T01:06:53;99357.16;;;19.13;92.41
41515;BME280;27247;48.020;16.720;2022-08-14T01:11:04;99352.13;;;19.05;92.44
41515;BME280;27247;48.020;16.720;2022-08-14T01:15:15;99353.81;;;18.95;93.26
41515;BME280;27247;48.020;16.720;2022-08-14T01:19:30;99355.38;;;18.91;93.54
41515;BME280;27247;48.020;16.720;2022-08-14T01:23:59;99352.81;;;18.84;93.87
41515;BME280;27247;48.020;16.720;2022-08-14T01:28:10;99363.03;;;18.82;94.30
41515;BME280;27247;48.020;16.720;2022-08-14T01:32:21;99361.97;;;18.83;94.71
41515;BME280;27247;48.020;16.720;2022-08-14T01:36:32;99362.09;;;18.88;94.60
41515;BME280;27247;48.020;16.720;2022-08-14T01:40:48;99356.84;;;18.98;95.00
41515;BME280;27247;48.020;16.720;2022-08-14T01:44:59;99358.59;;;19.04;94.15
41515;BME280;27247;48.020;16.720;2022-08-14T01:49:11;99363.44;;;19.02;93.93
41515;BME280;27247;48.020;16.720;2022-08-14T01:53:24;99350.56;;;19.09;94.39
41515;BME280;27247;48.020;16.720;2022-08-14T01:57:34;99351.56;;;19.20;94.31
41515;BME280;27247;48.020;16.720;2022-08-14T02:01:50;99343.53;;;19.25;94.26
41515;BME280;27247;48.020;16.720;2022-08-14T02:11:00;99346.19;;;19.37;94.08
41515;BME280;27247;48.020;16.720;2022-08-14T02:15:29;99346.25;;;19.42;93.41
41515;BME280;27247;48.020;16.720;2022-08-14T02:19:39;99337.41;;;19.46;93.05
41515;BME280;27247;48.020;16.720;2022-08-14T02:23:51;99342.72;;;19.41;92.51
41515;BME280;27247;48.020;16.720;2022-08-14T02:28:02;99339.44;;;19.39;92.68
41515;BME280;27247;48.020;16.720;2022-08-14T02:32:12;99348.16;;;19.41;92.40
41515;BME280;27247;48.020;16.720;2022-08-14T02:36:25;99350.13;;;19.29;92.39
41515;BME280;27247;48.020;16.720;2022-08-14T02:40:36;99341.75;;;19.31;92.60
41515;BME280;27247;48.020;16.720;2022-08-14T02:44:47;99346.50;;;19.24;93.30
41515;BME280;27247;48.020;16.720;2022-08-14T02:48:59;99346.41;;;19.19;92.81
41515;BME280;27247;48.020;16.720;2022-08-14T02:53:10;99350.31;;;19.11;92.96
41515;BME280;27247;48.020;16.720;2022-08-14T02:57:21;99349.16;;;19.07;93.89
41515;BME280;27247;48.020;16.720;2022-08-14T03:01:33;99351.69;;;18.97;95.26
41515;BME280;27247;48.020;16.720;2022-08-14T03:05:43;99347.91;;;18.98;96.15
41515;BME280;27247;48.020;16.720;2022-08-14T03:09:54;99350.38;;;18.99;96.65
41515;BME280;27247;48.020;16.720;2022-08-14T03:14:04;99350.00;;;19.07;96.74
41515;BME280;27247;48.020;16.720;2022-08-14T03:18:15;99344.19;;;19.16;97.38
41515;BME280;27247;48.020;16.720;2022-08-14T03:22:25;99354.94;;;19.27;97.25
41515;BME280;27247;48.020;16.720;2022-08-14T03:26:45;99348.31;;;19.35;97.09
41515;BME280;27247;48.020;16.720;2022-08-14T03:30:57;99360.63;;;19.42;96.83
41515;BME280;27247;48.020;16.720;2022-08-14T03:35:07;99355.75;;;19.56;96.25
41515;BME280;27247;48.020;16.720;2022-08-14T03:39:20;99355.34;;;19.64;95.82
41515;BME280;27247;48.020;16.720;2022-08-14T03:43:31;99349.25;;;19.74;95.29
41515;BME280;27247;48.020;16.720;2022-08-14T03:47:41;99349.78;;;19.88;94.84
41515;BME280;27247;48.020;16.720;2022-08-14T03:51:52;99348.28;;;19.97;94.19
41515;BME280;27247;48.020;16.720;2022-08-14T03:56:04;99353.22;;;20.00;93.94
41515;BME280;27247;48.020;16.720;2022-08-14T04:00:14;99345.91;;;20.00;94.00
41515;BME280;27247;48.020;16.720;2022-08-14T04:04:25;99333.22;;;20.06;93.49
41515;BME280;27247;48.020;16.720;2022-08-14T04:08:37;99337.09;;;20.10;93.34
41515;BME280;27247;48.020;16.720;2022-08-14T04:12:48;99338.53;;;20.18;93.01
41515;BME280;27247;48.020;16.720;2022-08-14T04:16:58;99341.56;;;20.21;92.68
41515;BME280;27247;48.020;16.720;2022-08-14T04:21:09;99335.91;;;20.23;92.84
41515;BME280;27247;48.020;16.720;2022-08-14T04:25:20;99328.66;;;20.28;92.94
41515;BME280;27247;48.020;16.720;2022-08-14T04:29:30;99321.66;;;20.32;93.26
41515;BME280;27247;48.020;16.720;2022-08-14T04:33:41;99314.72;;;20.42;93.09
41515;BME280;27247;48.020;16.720;2022-08-14T04:37:51;99316.94;;;20.45;93.03
41515;BME280;27247;48.020;16.720;2022-08-14T04:42:20;99316.75;;;20.51;92.84
41515;BME280;27247;48.020;16.720;2022-08-14T04:46:49;99318.47;;;20.57;92.14
41515;BME280;27247;48.020;16.720;2022-08-14T04:51:20;99310.13;;;20.64;91.93
41515;BME280;27247;48.020;16.720;2022-08-14T04:55:31;99313.13;;;20.67;91.93
41515;BME280;27247;48.020;16.720;2022-08-14T04:59:42;99315.16;;;20.77;91.52
41515;BME280;27247;48.020;16.720;2022-08-14T05:03:54;99310.63;;;20.83;91.51
41515;BME280;27247;48.020;16.720;2022-08-14T05:08:09;99308.53;;;20.90;91.45
41515;BME280;27247;48.020;16.720;2022-08-14T05:12:21;99307.81;;;20.99;90.75
41515;BME280;27247;48.020;16.720;2022-08-14T05:16:32;99304.31;;;21.04;90.92
41515;BME280;27247;48.020;16.720;2022-08-14T05:20:45;99310.41;;;21.16;90.10
41515;BME280;27247;48.020;16.720;2022-08-14T05:24:56;99302.56;;;21.20;89.83
41515;BME280;27247;48.020;16.720;2022-08-14T05:29:07;99299.97;;;21.30;89.16
41515;BME280;27247;48.020;16.720;2022-08-14T05:33:21;99298.38;;;21.34;89.24
41515;BME280;27247;48.020;16.720;2022-08-14T05:37:33;99297.03;;;21.37;88.94
41515;BME280;27247;48.020;16.720;2022-08-14T05:41:44;99300.91;;;21.46;88.67
41515;BME280;27247;48.020;16.720;2022-08-14T05:45:57;99301.50;;;21.53;88.40
41515;BME280;27247;48.020;16.720;2022-08-14T05:50:11;99304.53;;;21.56;88.17
41515;BME280;27247;48.020;16.720;2022-08-14T05:54:22;99309.16;;;21.56;88.40
41515;BME280;27247;48.020;16.720;2022-08-14T05:58:32;99306.69;;;21.54;88.51
41515;BME280;27247;48.020;16.720;2022-08-14T06:02:43;99305.84;;;21.49;88.69
41515;BME280;27247;48.020;16.720;2022-08-14T06:06:53;99308.59;;;21.54;88.79
41515;BME280;27247;48.020;16.720;2022-08-14T06:11:05;99305.44;;;21.67;88.36
41515;BME280;27247;48.020;16.720;2022-08-14T06:15:16;99298.69;;;21.75;87.94
41515;BME280;27247;48.020;16.720;2022-08-14T06:19:26;99298.78;;;21.85;87.44
41515;BME280;27247;48.020;16.720;2022-08-14T06:23:37;99304.03;;;21.96;87.47
41515;BME280;27247;48.020;16.720;2022-08-14T06:27:48;99298.13;;;22.05;86.04
41515;BME280;27247;48.020;16.720;2022-08-14T06:31:58;99298.88;;;22.00;86.65
41515;BME280;27247;48.020;16.720;2022-08-14T06:36:08;99302.25;;;22.17;86.29
41515;BME280;27247;48.020;16.720;2022-08-14T06:40:25;99291.13;;;22.24;85.66
41515;BME280;27247;48.020;16.720;2022-08-14T06:44:35;99290.59;;;22.27;86.24
41515;BME280;27247;48.020;16.720;2022-08-14T06:48:47;99295.72;;;22.18;85.74
41515;BME280;27247;48.020;16.720;2022-08-14T06:52:58;99292.22;;;22.23;85.93
41515;BME280;27247;48.020;16.720;2022-08-14T06:57:09;99293.06;;;22.28;85.49
41515;BME280;27247;48.020;16.720;2022-08-14T07:01:20;99296.38;;;22.41;85.03
41515;BME280;27247;48.020;16.720;2022-08-14T07:05:49;99286.09;;;22.58;84.66
41515;BME280;27247;48.020;16.720;2022-08-14T07:09:59;99285.00;;;22.59;84.24
41515;BME280;27247;48.020;16.720;2022-08-14T07:14:10;99282.00;;;22.55;84.38
41515;BME280;27247;48.020;16.720;2022-08-14T07:18:21;99292.09;;;22.60;84.13
41515;BME280;27247;48.020;16.720;2022-08-14T07:22:32;99304.09;;;22.69;83.45
41515;BME280;27247;48.020;16.720;2022-08-14T07:26:42;99292.13;;;22.70;83.17
41515;BME280;27247;48.020;16.720;2022-08-14T07:30:54;99296.31;;;22.93;82.84
41515;BME280;27247;48.020;16.720;2022-08-14T07:35:07;99289.69;;;22.74;82.82
41515;BME280;27247;48.020;16.720;2022-08-14T07:39:17;99290.47;;;22.64;82.99
41515;BME280;27247;48.020;16.720;2022-08-14T07:43:28;99292.63;;;22.62;83.58
41515;BME280;27247;48.020;16.720;2022-08-14T07:47:42;99282.38;;;22.84;83.16
41515;BME280;27247;48.020;16.720;2022-08-14T07:51:52;99286.81;;;23.11;81.82
41515;BME280;27247;48.020;16.720;2022-08-14T07:56:03;99286.00;;;23.20;81.19
41515;BME280;27247;48.020;16.720;2022-08-14T08:00:16;99280.81;;;23.39;79.38
41515;BME280;27247;48.020;16.720;2022-08-14T08:04:28;99275.91;;;23.77;79.62
41515;BME280;27247;48.020;16.720;2022-08-14T08:08:40;99280.50;;;24.07;77.65
41515;BME280;27247;48.020;16.720;2022-08-14T08:12:52;99282.66;;;24.20;77.14
41515;BME280;27247;48.020;16.720;2022-08-14T08:17:13;99277.75;;;24.17;76.69
41515;BME280;27247;48.020;16.720;2022-08-14T08:21:24;99285.38;;;24.30;76.17
41515;BME280;27247;48.020;16.720;2022-08-14T08:25:37;99288.06;;;24.35;76.25
41515;BME280;27247;48.020;16.720;2022-08-14T08:29:48;99295.19;;;24.26;74.85
41515;BME280;27247;48.020;16.720;2022-08-14T08:34:03;99294.44;;;24.00;75.80
41515;BME280;27247;48.020;16.720;2022-08-14T08:38:18;99287.38;;;23.74;77.61
41515;BME280;27247;48.020;16.720;2022-08-14T08:42:30;99296.94;;;23.66;77.66
41515;BME280;27247;48.020;16.720;2022-08-14T08:46:43;99290.94;;;23.69;77.66
41515;BME280;27247;48.020;16.720;2022-08-14T08:50:54;99289.53;;;23.82;76.90
41515;BME280;27247;48.020;16.720;2022-08-14T08:55:05;99296.66;;;23.73;76.98
41515;BME280;27247;48.020;16.720;2022-08-14T09:03:30;99299.91;;;23.75;77.39
41515;BME280;27247;48.020;16.720;2022-08-14T09:07:43;99289.81;;;23.80;77.62
41515;BME280;27247;48.020;16.720;2022-08-14T09:11:55;99292.25;;;23.97;76.33
41515;BME280;27247;48.020;16.720;2022-08-14T09:16:06;99285.41;;;24.05;75.91
41515;BME280;27247;48.020;16.720;2022-08-14T09:20:16;99295.25;;;24.01;76.08
41515;BME280;27247;48.020;16.720;2022-08-14T09:24:28;99299.88;;;24.10;75.39
41515;BME280;27247;48.020;16.720;2022-08-14T09:28:39;99292.16;;;24.38;74.65
41515;BME280;27247;48.020;16.720;2022-08-14T09:41:49;99287.31;;;24.79;73.42
41515;BME280;27247;48.020;16.720;2022-08-14T09:46:08;99276.81;;;24.96;72.73
41515;BME280;27247;48.020;16.720;2022-08-14T09:54:56;99278.44;;;25.07;72.43
41515;BME280;27247;48.020;16.720;2022-08-14T09:59:12;99276.97;;;25.20;71.95
41515;BME280;27247;48.020;16.720;2022-08-14T10:03:25;99263.25;;;25.25;71.58
41515;BME280;27247;48.020;16.720;2022-08-14T10:07:48;99259.59;;;25.06;71.85
41515;BME280;27247;48.020;16.720;2022-08-14T10:12:00;99262.88;;;25.03;71.71
41515;BME280;27247;48.020;16.720;2022-08-14T10:16:12;99255.53;;;24.88;71.90
41515;BME280;27247;48.020;16.720;2022-08-14T10:20:32;99259.88;;;24.94;71.36
41515;BME280;27247;48.020;16.720;2022-08-14T10:24:43;99256.28;;;25.09;71.23
41515;BME280;27247;48.020;16.720;2022-08-14T10:29:07;99244.06;;;25.30;70.87
41515;BME280;27247;48.020;16.720;2022-08-14T10:33:28;99240.72;;;25.38;70.43
41515;BME280;27247;48.020;16.720;2022-08-14T10:37:48;99240.84;;;26.10;69.07
41515;BME280;27247;48.020;16.720;2022-08-14T10:42:01;99234.94;;;26.64;66.95
41515;BME280;27247;48.020;16.720;2022-08-14T10:46:17;99226.66;;;27.26;65.55
41515;BME280;27247;48.020;16.720;2022-08-14T10:50:39;99229.94;;;27.74;62.99
41515;BME280;27247;48.020;16.720;2022-08-14T10:54:50;99226.06;;;27.89;63.25
41515;BME280;27247;48.020;16.720;2022-08-14T10:59:06;99217.72;;;28.08;62.66
41515;BME280;27247;48.020;16.720;2022-08-14T11:03:17;99222.41;;;27.93;62.52
41515;BME280;27247;48.020;16.720;2022-08-14T11:07:28;99213.47;;;28.15;62.22
41515;BME280;27247;48.020;16.720;2022-08-14T11:11:42;99212.94;;;28.54;61.38
41515;BME280;27247;48.020;16.720;2022-08-14T11:15:54;99206.00;;;28.57;60.76
41515;BME280;27247;48.020;16.720;2022-08-14T11:20:08;99199.28;;;29.21;60.05
41515;BME280;27247;48.020;16.720;2022-08-14T11:24:20;99187.50;;;29.07;59.65
41515;BME280;27247;48.020;16.720;2022-08-14T11:28:37;99200.03;;;28.77;60.01
41515;BME280;27247;48.020;16.720;2022-08-14T11:32:49;99202.59;;;28.24;61.26
41515;BME280;27247;48.020;16.720;2022-08-14T11:37:11;99192.72;;;28.37;61.00
41515;BME280;27247;48.020;16.720;2022-08-14T11:41:24;99204.69;;;27.72;62.37
41515;BME280;27247;48.020;16.720;2022-08-14T11:45:38;99208.91;;;27.51;63.06
41515;BME280;27247;48.020;16.720;2022-08-14T11:49:49;99204.28;;;27.79;61.91
41515;BME280;27247;48.020;16.720;2022-08-14T11:54:04;99204.19;;;27.70;61.66
41515;BME280;27247;48.020;16.720;2022-08-14T11:58:15;99203.63;;;27.41;61.56
41515;BME280;27247;48.020;16.720;2022-08-14T12:02:26;99206.38;;;27.54;61.85
41515;BME280;27247;48.020;16.720;2022-08-14T12:10:55;99196.59;;;28.36;59.06
41515;BME280;27247;48.020;16.720;2022-08-14T12:15:06;99191.28;;;27.98;59.87
41515;BME280;27247;48.020;16.720;2022-08-14T12:19:17;99182.31;;;28.06;61.11
41515;BME280;27247;48.020;16.720;2022-08-14T12:23:27;99177.94;;;28.05;60.67
41515;BME280;27247;48.020;16.720;2022-08-14T12:27:42;99173.28;;;28.69;60.09
41515;BME280;27247;48.020;16.720;2022-08-14T12:32:00;99170.53;;;28.33;60.25
41515;BME280;27247;48.020;16.720;2022-08-14T12:36:20;99171.56;;;28.23;60.88
41515;BME280;27247;48.020;16.720;2022-08-14T12:40:30;99160.66;;;28.32;60.29
41515;BME280;27247;48.020;16.720;2022-08-14T12:44:41;99159.63;;;28.01;60.83
41515;BME280;27247;48.020;16.720;2022-08-14T12:48:53;99151.22;;;28.24;60.96
41515;BME280;27247;48.020;16.720;2022-08-14T12:53:04;99147.13;;;28.58;60.04
41515;BME280;27247;48.020;16.720;2022-08-14T12:57:14;99144.72;;;29.23;57.43
41515;BME280;27247;48.020;16.720;2022-08-14T13:01:27;99153.59;;;29.82;55.60
41515;BME280;27247;48.020;16.720;2022-08-14T13:05:38;99140.50;;;29.97;55.05
41515;BME280;27247;48.020;16.720;2022-08-14T13:09:54;99139.84;;;30.00;56.76
41515;BME280;27247;48.020;16.720;2022-08-14T13:14:05;99129.75;;;30.43;55.50
41515;BME280;27247;48.020;16.720;2022-08-14T13:18:16;99127.78;;;30.96;54.47
41515;BME280;27247;48.020;16.720;2022-08-14T13:22:26;99129.41;;;30.97;53.85
41515;BME280;27247;48.020;16.720;2022-08-14T13:26:48;99125.66;;;31.01;53.18
41515;BME280;27247;48.020;16.720;2022-08-14T13:31:01;99113.53;;;30.85;53.51
41515;BME280;27247;48.020;16.720;2022-08-14T13:35:16;99106.50;;;31.05;52.95
41515;BME280;27247;48.020;16.720;2022-08-14T13:39:27;99095.63;;;31.00;52.36
41515;BME280;27247;48.020;16.720;2022-08-14T13:43:39;99089.31;;;31.55;52.16
41515;BME280;27247;48.020;16.720;2022-08-14T13:47:49;99070.91;;;31.29;52.00
41515;BME280;27247;48.020;16.720;2022-08-14T13:52:03;99070.47;;;31.01;53.15
41515;BME280;27247;48.020;16.720;2022-08-14T13:56:15;99058.53;;;31.35;52.46
41515;BME280;27247;48.020;16.720;2022-08-14T14:00:26;99061.16;;;31.32;51.69
41515;BME280;27247;48.020;16.720;2022-08-14T14:04:41;99060.38;;;31.05;51.90
41515;BME280;27247;48.020;16.720;2022-08-14T14:08:54;99059.06;;;31.20;52.43
41515;BME280;27247;48.020;16.720;2022-08-14T14:13:04;99064.34;;;31.42;51.52
41515;BME280;27247;48.020;16.720;2022-08-14T14:17:17;99055.69;;;31.53;51.17
41515;BME280;27247;48.020;16.720;2022-08-14T14:21:35;99063.19;;;31.43;50.64
41515;BME280;27247;48.020;16.720;2022-08-14T14:25:46;99048.16;;;32.12;49.66
41515;BME280;27247;48.020;16.720;2022-08-14T14:29:58;99043.16;;;31.85;49.99
41515;BME280;27247;48.020;16.720;2022-08-14T14:34:10;99041.69;;;32.50;49.15
41515;BME280;27247;48.020;16.720;2022-08-14T14:38:22;99034.00;;;32.55;48.68
41515;BME280;27247;48.020;16.720;2022-08-14T14:42:41;99030.06;;;32.56;48.28
41515;BME280;27247;48.020;16.720;2022-08-14T14:46:54;99033.34;;;32.70;48.15
41515;BME280;27247;48.020;16.720;2022-08-14T14:51:07;99029.81;;;32.49;48.94
41515;BME280;27247;48.020;16.720;2022-08-14T14:55:17;99016.25;;;32.15;49.54
41515;BME280;27247;48.020;16.720;2022-08-14T14:59:31;99019.63;;;32.20;49.33
41515;BME280;27247;48.020;16.720;2022-08-14T15:03:41;99018.09;;;32.31;49.14
41515;BME280;27247;48.020;16.720;2022-08-14T15:07:56;99014.22;;;31.82;49.99
41515;BME280;27247;48.020;16.720;2022-08-14T15:12:07;99018.94;;;32.02;50.06
41515;BME280;27247;48.020;16.720;2022-08-14T15:16:17;99016.41;;;31.97;49.94
41515;BME280;27247;48.020;16.720;2022-08-14T15:20:28;99012.47;;;31.78;49.79
41515;BME280;27247;48.020;16.720;2022-08-14T15:24:38;99016.84;;;31.49;50.15
41515;BME280;27247;48.020;16.720;2022-08-14T15:28:49;99016.03;;;31.19;50.94
41515;BME280;27247;48.020;16.720;2022-08-14T15:32:59;99025.44;;;30.63;52.10
41515;BME280;27247;48.020;16.720;2022-08-14T15:37:10;99020.59;;;30.34;53.16
41515;BME280;27247;48.020;16.720;2022-08-14T15:41:21;99023.94;;;29.96;53.82
41515;BME280;27247;48.020;16.720;2022-08-14T15:45:31;99019.06;;;29.67;54.49
41515;BME280;27247;48.020;16.720;2022-08-14T15:49:43;99011.56;;;29.50;54.97
41515;BME280;27247;48.020;16.720;2022-08-14T15:53:53;99013.28;;;29.29;54.65
41515;BME280;27247;48.020;16.720;2022-08-14T15:58:03;98999.47;;;29.20;55.05
41515;BME280;27247;48.020;16.720;2022-08-14T16:02:14;98991.06;;;29.26;54.86
41515;BME280;27247;48.020;16.720;2022-08-14T16:06:26;98999.81;;;28.88;55.72
41515;BME280;27247;48.020;16.720;2022-08-14T16:10:40;98997.78;;;28.49;56.92
41515;BME280;27247;48.020;16.720;2022-08-14T16:14:51;98991.53;;;28.12;56.73
41515;BME280;27247;48.020;16.720;2022-08-14T16:19:03;98983.19;;;28.04;57.83
41515;BME280;27247;48.020;16.720;2022-08-14T16:23:15;98978.44;;;27.95;57.97
41515;BME280;27247;48.020;16.720;2022-08-14T16:27:27;98984.78;;;27.82;58.34
41515;BME280;27247;48.020;16.720;2022-08-14T16:31:37;98990.22;;;27.60;58.73
41515;BME280;27247;48.020;16.720;2022-08-14T16:35:48;98979.34;;;27.55;58.61
41515;BME280;27247;48.020;16.720;2022-08-14T16:40:01;98982.81;;;27.47;58.87
41515;BME280;27247;48.020;16.720;2022-08-14T16:44:13;98981.69;;;27.48;58.80
41515;BME280;27247;48.020;16.720;2022-08-14T16:48:25;98979.88;;;27.43;58.77
41515;BME280;27247;48.020;16.720;2022-08-14T16:52:39;98986.06;;;27.49;59.25
41515;BME280;27247;48.020;16.720;2022-08-14T16:56:49;98967.06;;;27.52;58.84
41515;BME280;27247;48.020;16.720;2022-08-14T17:01:12;98976.91;;;27.53;58.21
41515;BME280;27247;48.020;16.720;2022-08-14T17:05:25;98965.03;;;27.44;58.03
41515;BME280;27247;48.020;16.720;2022-08-14T17:13:48;98960.78;;;27.24;59.61
41515;BME280;27247;48.020;16.720;2022-08-14T17:17:58;98969.84;;;27.25;59.40
41515;BME280;27247;48.020;16.720;2022-08-14T17:22:09;98973.19;;;27.22;59.65
41515;BME280;27247;48.020;16.720;2022-08-14T17:30:52;98959.06;;;27.01;60.62
41515;BME280;27247;48.020;16.720;2022-08-14T17:35:04;98963.00;;;26.95;60.73
41515;BME280;27247;48.020;16.720;2022-08-14T17:39:17;98967.56;;;26.86;61.20
41515;BME280;27247;48.020;16.720;2022-08-14T17:43:29;98967.34;;;26.82;61.74
41515;BME280;27247;48.020;16.720;2022-08-14T17:47:40;98963.06;;;26.62;62.23
41515;BME280;27247;48.020;16.720;2022-08-14T17:56:10;98966.50;;;26.22;63.70
41515;BME280;27247;48.020;16.720;2022-08-14T18:00:21;98955.19;;;26.09;64.15
41515;BME280;27247;48.020;16.720;2022-08-14T18:04:33;98965.72;;;25.84;64.92
41515;BME280;27247;48.020;16.720;2022-08-14T18:08:45;98969.19;;;25.89;63.41
41515;BME280;27247;48.020;16.720;2022-08-14T18:12:56;98960.59;;;25.77;64.57
41515;BME280;27247;48.020;16.720;2022-08-14T18:17:07;98967.69;;;25.59;66.28
41515;BME280;27247;48.020;16.720;2022-08-14T18:21:17;98973.81;;;25.51;66.88
41515;BME280;27247;48.020;16.720;2022-08-14T18:25:29;98975.22;;;25.49;66.86
41515;BME280;27247;48.020;16.720;2022-08-14T18:29:47;98978.38;;;25.37;66.73
41515;BME280;27247;48.020;16.720;2022-08-14T18:34:06;98981.50;;;25.06;67.22
41515;BME280;27247;48.020;16.720;2022-08-14T18:38:19;98987.31;;;24.95;67.51
41515;BME280;27247;48.020;16.720;2022-08-14T18:51:24;98998.22;;;24.71;67.76
41515;BME280;27247;48.020;16.720;2022-08-14T18:55:40;99005.19;;;24.58;68.78
41515;BME280;27247;48.020;16.720;2022-08-14T18:59:50;99002.16;;;24.60;69.21
41515;BME280;27247;48.020;16.720;2022-08-14T19:04:01;99001.91;;;24.27;69.61
41515;BME280;27247;48.020;16.720;2022-08-14T19:12:56;99007.72;;;23.66;72.09
41515;BME280;27247;48.020;16.720;2022-08-14T19:17:39;99011.13;;;23.33;74.52
41515;BME280;27247;48.020;16.720;2022-08-14T19:21:55;99011.31;;;23.51;73.64
41515;BME280;27247;48.020;16.720;2022-08-14T19:26:19;99010.25;;;23.47;73.03
41515;BME280;27247;48.020;16.720;2022-08-14T19:30:30;99011.38;;;23.41;73.23
41515;BME280;27247;48.020;16.720;2022-08-14T19:34:44;99002.91;;;23.43;74.61
41515;BME280;27247;48.020;16.720;2022-08-14T19:38:59;99007.06;;;23.30;75.89
41515;BME280;27247;48.020;16.720;2022-08-14T19:43:22;98995.09;;;23.26;74.82
41515;BME280;27247;48.020;16.720;2022-08-14T19:47:35;98988.56;;;23.17;74.30
41515;BME280;27247;48.020;16.720;2022-08-14T19:51:47;98992.66;;;23.19;74.85
41515;BME280;27247;48.020;16.720;2022-08-14T19:56:00;98991.59;;;23.10;75.21
41515;BME280;27247;48.020;16.720;2022-08-14T20:00:12;98985.66;;;22.98;76.66
41515;BME280;27247;48.020;16.720;2022-08-14T20:04:26;98974.75;;;22.88;75.49
41515;BME280;27247;48.020;16.720;2022-08-14T20:08:38;98975.03;;;22.81;74.41
41515;BME280;27247;48.020;16.720;2022-08-14T20:12:56;98972.84;;;22.73;73.82
41515;BME280;27247;48.020;16.720;2022-08-14T20:17:13;98980.50;;;22.66;74.81
41515;BME280;27247;48.020;16.720;2022-08-14T20:21:24;98981.88;;;22.58;75.34
41515;BME280;27247;48.020;16.720;2022-08-14T20:25:35;98976.16;;;22.50;75.48
41515;BME280;27247;48.020;16.720;2022-08-14T20:34:36;98984.34;;;22.29;76.21
41515;BME280;27247;48.020;16.720;2022-08-14T20:38:54;98987.34;;;22.33;75.74
41515;BME280;27247;48.020;16.720;2022-08-14T20:43:17;98983.25;;;22.30;76.31
41515;BME280;27247;48.020;16.720;2022-08-14T20:47:55;98983.81;;;22.33;75.22
41515;BME280;27247;48.020;16.720;2022-08-14T20:52:09;98985.16;;;22.15;74.96
41515;BME280;27247;48.020;16.720;2022-08-14T20:56:20;98977.81;;;22.05;75.79
41515;BME280;27247;48.020;16.720;2022-08-14T21:00:42;98985.13;;;21.99;74.93
41515;BME280;27247;48.020;16.720;2022-08-14T21:04:58;98984.59;;;21.97;74.28
41515;BME280;27247;48.020;16.720;2022-08-14T21:09:09;98993.56;;;21.88;74.93
41515;BME280;27247;48.020;16.720;2022-08-14T21:13:27;98986.44;;;21.77;77.02
41515;BME280;27247;48.020;16.720;2022-08-14T21:17:41;98985.34;;;21.73;78.74
41515;BME280;27247;48.020;16.720;2022-08-14T21:21:55;98985.06;;;21.64;79.71
41515;BME280;27247;48.020;16.720;2022-08-14T21:26:06;98976.06;;;21.58;80.39
41515;BME280;27247;48.020;16.720;2022-08-14T21:30:17;98981.50;;;21.53;80.75
41515;BME280;27247;48.020;16.720;2022-08-14T21:34:27;98972.25;;;21.54;79.33
41515;BME280;27247;48.020;16.720;2022-08-14T21:38:39;98975.50;;;21.51;79.38
41515;BME280;27247;48.020;16.720;2022-08-14T21:42:49;98965.44;;;21.47;78.51
41515;BME280;27247;48.020;16.720;2022-08-14T21:47:01;98969.50;;;21.39;79.45
41515;BME280;27247;48.020;16.720;2022-08-14T21:51:11;98963.22;;;21.28;81.03
41515;BME280;27247;48.020;16.720;2022-08-14T21:55:21;98967.00;;;21.22;79.75
41515;BME280;27247;48.020;16.720;2022-08-14T21:59:32;98960.97;;;21.15;77.35
41515;BME280;27247;48.020;16.720;2022-08-14T22:03:43;98964.19;;;21.07;79.68
41515;BME280;27247;48.020;16.720;2022-08-14T22:07:53;98967.97;;;21.06;81.14
41515;BME280;27247;48.020;16.720;2022-08-14T22:12:05;98957.38;;;21.04;81.93
41515;BME280;27247;48.020;16.720;2022-08-14T22:16:16;98959.28;;;21.04;79.67
41515;BME280;27247;48.020;16.720;2022-08-14T22:20:26;98951.06;;;20.89;80.58
41515;BME280;27247;48.020;16.720;2022-08-14T22:24:38;98964.78;;;20.72;80.79
41515;BME280;27247;48.020;16.720;2022-08-14T22:28:48;98955.22;;;20.59;82.64
41515;BME280;27247;48.020;16.720;2022-08-14T22:32:59;98957.63;;;20.56;83.69
41515;BME280;27247;48.020;16.720;2022-08-14T22:37:09;98959.47;;;20.45;85.49
41515;BME280;27247;48.020;16.720;2022-08-14T22:41:21;98965.47;;;20.47;85.47
41515;BME280;27247;48.020;16.720;2022-08-14T22:45:32;98958.72;;;20.55;84.70
41515;BME280;27247;48.020;16.720;2022-08-14T22:49:42;98965.63;;;20.35;85.85
41515;BME280;27247;48.020;16.720;2022-08-14T22:53:54;98965.88;;;20.34;85.82
41515;BME280;27247;48.020;16.720;2022-08-14T22:58:05;98965.25;;;20.22;83.18
41515;BME280;27247;48.020;16.720;2022-08-14T23:02:21;98960.31;;;20.14;83.00